createdAt,value
2019-04-14T00:00:36.873Z,-0.30
2019-04-14T00:03:11.094Z,-0.20
2019-04-14T00:05:41.246Z,-0.20
2019-04-14T00:08:11.096Z,-0.20
2019-04-14T00:10:40.557Z,-0.10
2019-04-14T00:13:11.007Z,-0.10
2019-04-14T00:15:45.097Z,0.00
2019-04-14T00:18:11.883Z,0.00
2019-04-14T00:20:42.532Z,0.00
2019-04-14T00:23:13.064Z,0.10
2019-04-14T00:25:43.393Z,0.10
2019-04-14T00:28:14.095Z,0.10
2019-04-14T00:30:44.774Z,0.10
2019-04-14T00:33:19.216Z,0.10
2019-04-14T00:35:51.386Z,0.20
2019-04-14T00:38:23.871Z,0.20
2019-04-14T00:40:56.063Z,0.20
2019-04-14T00:43:43.928Z,0.10
2019-04-14T00:46:18.999Z,0.20
2019-04-14T00:48:49.673Z,0.20
2019-04-14T00:51:19.926Z,0.20
2019-04-14T00:53:49.588Z,0.10
2019-04-14T00:56:19.472Z,0.10
2019-04-14T00:58:49.708Z,0.10
2019-04-14T01:01:19.731Z,0.10
2019-04-14T01:03:50.294Z,0.10
2019-04-14T01:06:20.798Z,0.10
2019-04-14T01:08:51.138Z,0.10
2019-04-14T01:11:20.656Z,0.20
2019-04-14T01:13:50.839Z,0.30
2019-04-14T01:16:23.300Z,0.30
2019-04-14T01:18:51.601Z,0.40
2019-04-14T01:21:21.789Z,0.40
2019-04-14T01:23:52.275Z,0.40
2019-04-14T01:26:22.538Z,0.50
2019-04-14T01:28:52.647Z,0.50
2019-04-14T01:31:23.076Z,0.60
2019-04-14T01:33:53.376Z,0.70
2019-04-14T01:36:23.509Z,0.70
2019-04-14T01:38:53.615Z,0.70
2019-04-14T01:41:23.915Z,0.70
2019-04-14T01:43:53.897Z,0.70
2019-04-14T01:46:28.047Z,0.80
2019-04-14T01:48:54.465Z,0.80
2019-04-14T01:51:31.342Z,0.90
2019-04-14T01:54:06.053Z,0.90
2019-04-14T01:56:53.653Z,0.90
2019-04-14T01:59:24.149Z,0.90
2019-04-14T02:01:56.438Z,0.90
2019-04-14T02:04:26.723Z,1.00
2019-04-14T02:06:57.365Z,0.90
2019-04-14T02:09:27.227Z,0.90
2019-04-14T02:11:57.439Z,0.90
2019-04-14T02:14:27.786Z,0.90
2019-04-14T02:17:00.491Z,0.90
2019-04-14T02:19:28.521Z,1.00
2019-04-14T02:21:58.477Z,1.00
2019-04-14T02:24:28.866Z,1.00
2019-04-14T02:26:59.123Z,1.00
2019-04-14T02:29:29.748Z,1.00
2019-04-14T02:32:28.005Z,1.00
2019-04-14T02:34:57.494Z,1.00
2019-04-14T02:37:26.761Z,1.00
2019-04-14T02:45:00.688Z,1.10
2019-04-14T02:52:35.545Z,1.10
2019-04-14T02:55:05.512Z,1.10
2019-04-14T03:00:15.454Z,1.10
2019-04-14T03:02:38.879Z,1.10
2019-04-14T03:05:13.329Z,1.10
2019-04-14T03:10:10.535Z,1.10
2019-04-14T03:15:17.020Z,1.20
2019-04-14T03:18:20.429Z,1.20
2019-04-14T03:20:47.801Z,1.20
2019-04-14T03:23:46.765Z,1.30
2019-04-14T03:26:15.359Z,1.30
2019-04-14T03:29:10.731Z,1.30
2019-04-14T03:34:39.190Z,1.30
2019-04-14T03:43:55.854Z,1.10
2019-04-14T03:51:39.578Z,1.10
2019-04-14T03:54:01.957Z,1.20
2019-04-14T03:56:17.665Z,1.20
2019-04-14T03:58:46.536Z,1.20
2019-04-14T04:01:17.182Z,1.20
2019-04-14T04:03:47.778Z,1.20
2019-04-14T04:06:18.140Z,1.20
2019-04-14T04:08:48.508Z,1.20
2019-04-14T04:11:19.271Z,1.20
2019-04-14T04:13:49.858Z,1.10
2019-04-14T04:16:22.266Z,1.10
2019-04-14T04:19:01.896Z,1.10
2019-04-14T04:21:24.814Z,1.00
2019-04-14T04:24:04.728Z,1.00
2019-04-14T04:26:38.654Z,1.00
2019-04-14T04:29:12.199Z,1.00
2019-04-14T04:31:52.600Z,1.00
2019-04-14T04:34:35.967Z,0.90
2019-04-14T04:37:17.111Z,0.90
2019-04-14T04:39:49.533Z,0.80
2019-04-14T04:42:19.837Z,0.70
2019-04-14T04:44:49.383Z,0.70
2019-04-14T04:47:18.853Z,0.60
2019-04-14T04:49:49.034Z,0.60
2019-04-14T04:52:19.102Z,0.50
2019-04-14T04:54:51.812Z,0.40
2019-04-14T04:57:22.096Z,0.40
2019-04-14T04:59:51.757Z,0.40
2019-04-14T05:02:22.083Z,0.30
2019-04-14T05:04:52.584Z,0.30
2019-04-14T05:07:23.083Z,0.30
2019-04-14T05:10:00.267Z,0.30
2019-04-14T05:12:34.795Z,0.30
2019-04-14T05:15:07.305Z,0.40
2019-04-14T05:17:47.598Z,0.40
2019-04-14T05:20:18.037Z,0.40
2019-04-14T05:22:48.565Z,0.50
2019-04-14T05:25:19.012Z,0.60
2019-04-14T05:27:49.447Z,0.70
2019-04-14T05:30:19.695Z,0.90
2019-04-14T05:32:50.167Z,1.10
2019-04-14T05:35:20.573Z,1.20
2019-04-14T05:37:50.753Z,1.30
2019-04-14T05:40:21.053Z,1.40
2019-04-14T05:42:51.611Z,1.40
2019-04-14T05:45:22.018Z,1.50
2019-04-14T05:47:52.276Z,1.50
2019-04-14T05:50:22.687Z,1.50
2019-04-14T05:52:52.133Z,1.60
2019-04-14T05:55:22.015Z,1.60
2019-04-14T05:57:52.509Z,1.70
2019-04-14T06:00:23.400Z,1.80
2019-04-14T06:02:52.993Z,2.00
2019-04-14T06:05:23.271Z,2.10
2019-04-14T06:07:55.383Z,2.20
2019-04-14T06:10:23.863Z,2.40
2019-04-14T06:12:53.250Z,2.60
2019-04-14T06:15:22.652Z,2.80
2019-04-14T06:17:52.061Z,2.90
2019-04-14T06:20:21.452Z,3.00
2019-04-14T06:22:50.840Z,3.10
2019-04-14T06:25:20.230Z,3.30
2019-04-14T06:27:49.652Z,3.50
2019-04-14T06:30:36.905Z,3.70
2019-04-14T06:33:08.005Z,3.80
2019-04-14T06:35:39.049Z,4.10
2019-04-14T06:38:10.097Z,4.50
2019-04-14T06:40:41.150Z,5.10
2019-04-14T06:43:11.768Z,5.80
2019-04-14T06:45:41.296Z,6.50
2019-04-14T06:48:10.718Z,7.10
2019-04-14T06:50:40.108Z,7.70
2019-04-14T06:53:09.486Z,8.30
2019-04-14T06:55:38.918Z,8.90
2019-04-14T06:58:08.303Z,9.40
2019-04-14T07:00:37.694Z,9.50
2019-04-14T07:03:07.104Z,9.50
2019-04-14T07:05:36.520Z,9.50
2019-04-14T07:08:05.908Z,9.80
2019-04-14T07:10:35.306Z,9.70
2019-04-14T07:13:04.732Z,9.70
2019-04-14T07:15:34.111Z,9.60
2019-04-14T07:18:03.760Z,9.30
2019-04-14T07:20:33.223Z,8.90
2019-04-14T07:23:02.730Z,8.60
2019-04-14T07:25:32.316Z,8.40
2019-04-14T07:28:01.803Z,8.30
2019-04-14T07:30:33.588Z,8.40
2019-04-14T07:33:11.027Z,8.40
2019-04-14T07:35:56.901Z,8.40
2019-04-14T07:38:27.914Z,8.70
2019-04-14T07:41:04.763Z,8.60
2019-04-14T07:43:52.138Z,8.30
2019-04-14T07:46:37.942Z,8.50
2019-04-14T07:49:27.201Z,8.60
2019-04-14T07:52:16.362Z,9.00
2019-04-14T07:54:49.917Z,9.30
2019-04-14T07:57:20.965Z,9.40
2019-04-14T08:00:08.197Z,9.70
2019-04-14T08:02:42.223Z,9.80
2019-04-14T08:05:19.259Z,9.30
2019-04-14T08:07:49.453Z,9.50
2019-04-14T08:10:18.937Z,10.30
2019-04-14T08:12:48.365Z,10.70
2019-04-14T08:15:17.991Z,10.30
2019-04-14T08:17:47.397Z,10.20
2019-04-14T08:20:26.904Z,9.70
2019-04-14T08:22:48.010Z,9.30
2019-04-14T08:25:17.495Z,9.70
2019-04-14T08:27:46.906Z,9.50
2019-04-14T08:30:16.381Z,9.30
2019-04-14T08:32:45.811Z,9.10
2019-04-14T08:35:15.399Z,9.50
2019-04-14T08:37:44.901Z,9.80
2019-04-14T08:40:14.714Z,9.70
2019-04-14T08:43:04.386Z,9.50
2019-04-14T08:45:44.520Z,9.50
2019-04-14T08:48:31.594Z,9.70
2019-04-14T08:51:05.483Z,10.10
2019-04-14T08:53:36.588Z,10.40
2019-04-14T08:56:13.189Z,10.50
2019-04-14T08:58:47.231Z,10.00
2019-04-14T09:01:23.818Z,10.10
2019-04-14T09:03:57.844Z,10.80
2019-04-14T09:06:37.658Z,10.90
2019-04-14T09:09:09.416Z,11.70
2019-04-14T09:11:49.162Z,11.70
2019-04-14T09:14:18.693Z,10.80
2019-04-14T09:16:48.195Z,10.80
2019-04-14T09:19:17.607Z,11.00
2019-04-14T09:21:47.383Z,11.00
2019-04-14T09:24:16.960Z,10.90
2019-04-14T09:26:46.771Z,10.20
2019-04-14T09:29:16.163Z,10.40
2019-04-14T09:31:45.669Z,11.10
2019-04-14T09:34:15.419Z,11.70
2019-04-14T09:36:44.824Z,12.30
2019-04-14T09:39:14.374Z,11.80
2019-04-14T09:41:43.804Z,11.80
2019-04-14T09:44:14.140Z,12.00
2019-04-14T09:46:43.550Z,12.70
2019-04-14T09:49:12.972Z,13.00
2019-04-14T09:51:42.462Z,13.30
2019-04-14T09:54:11.954Z,13.00
2019-04-14T09:56:41.557Z,12.30
2019-04-14T09:59:10.978Z,12.10
2019-04-14T10:01:40.661Z,12.40
2019-04-14T10:04:10.157Z,12.80
2019-04-14T10:06:41.014Z,12.20
2019-04-14T10:09:10.717Z,12.50
2019-04-14T10:11:48.458Z,12.60
2019-04-14T10:14:12.024Z,13.00
2019-04-14T10:16:41.660Z,13.20
2019-04-14T10:19:11.227Z,12.40
2019-04-14T10:21:41.177Z,12.30
2019-04-14T10:24:10.595Z,12.80
2019-04-14T10:26:40.008Z,13.10
2019-04-14T10:29:09.454Z,12.90
2019-04-14T10:31:38.951Z,13.40
2019-04-14T10:34:09.912Z,13.50
2019-04-14T10:36:39.507Z,12.50
2019-04-14T10:39:08.948Z,12.50
2019-04-14T10:41:38.469Z,13.20
2019-04-14T10:44:08.116Z,13.40
2019-04-14T10:46:37.614Z,13.10
2019-04-14T10:49:07.934Z,12.80
2019-04-14T10:51:38.167Z,12.70
2019-04-14T10:54:07.572Z,12.80
2019-04-14T10:56:37.096Z,13.00
2019-04-14T10:59:06.638Z,12.70
2019-04-14T11:01:36.300Z,12.20
2019-04-14T11:04:08.031Z,11.80
2019-04-14T11:06:38.775Z,11.90
2019-04-14T11:09:10.056Z,12.10
2019-04-14T11:11:39.595Z,12.10
2019-04-14T11:14:09.107Z,11.50
2019-04-14T11:16:38.584Z,10.90
2019-04-14T11:19:09.607Z,10.70
2019-04-14T11:21:42.706Z,10.80
2019-04-14T11:24:10.367Z,10.70
2019-04-14T11:26:39.873Z,10.90
2019-04-14T11:29:09.408Z,11.10
2019-04-14T11:31:46.552Z,11.00
2019-04-14T11:34:17.652Z,10.60
2019-04-14T11:37:07.252Z,10.60
2019-04-14T11:39:36.761Z,10.90
2019-04-14T11:42:06.234Z,11.20
2019-04-14T11:44:35.686Z,11.50
2019-04-14T11:47:05.676Z,11.50
2019-04-14T11:49:36.730Z,11.80
2019-04-14T11:52:06.276Z,12.00
2019-04-14T11:54:35.732Z,12.30
2019-04-14T11:57:05.418Z,12.20
2019-04-14T11:59:39.480Z,12.10
2019-04-14T12:02:11.583Z,11.80
2019-04-14T12:04:42.707Z,11.50
2019-04-14T12:07:13.902Z,11.30
2019-04-14T12:09:44.949Z,11.40
2019-04-14T12:12:14.461Z,11.40
2019-04-14T12:14:44.012Z,11.60
2019-04-14T12:17:13.392Z,11.70
2019-04-14T12:19:42.855Z,11.40
2019-04-14T12:22:12.297Z,10.80
2019-04-14T12:24:41.702Z,10.80
2019-04-14T12:27:11.191Z,10.80
2019-04-14T12:29:41.199Z,11.00
2019-04-14T12:32:12.769Z,11.00
2019-04-14T12:34:42.602Z,10.90
2019-04-14T12:37:12.079Z,10.80
2019-04-14T12:39:41.677Z,10.80
2019-04-14T12:42:27.598Z,11.10
2019-04-14T12:45:04.423Z,11.20
2019-04-14T12:47:40.086Z,11.00
2019-04-14T12:50:09.727Z,11.00
2019-04-14T12:52:39.159Z,10.60
2019-04-14T12:55:09.018Z,10.60
2019-04-14T12:57:48.899Z,10.60
2019-04-14T13:00:20.574Z,10.70
2019-04-14T13:02:51.695Z,10.40
2019-04-14T13:05:21.097Z,10.50
2019-04-14T13:07:51.002Z,10.80
2019-04-14T13:10:20.511Z,10.90
2019-04-14T13:12:50.018Z,11.00
2019-04-14T13:15:19.549Z,10.80
2019-04-14T13:17:49.205Z,11.00
2019-04-14T13:20:18.812Z,11.30
2019-04-14T13:22:48.229Z,11.70
2019-04-14T13:25:17.726Z,11.90
2019-04-14T13:27:47.734Z,11.40
2019-04-14T13:30:18.911Z,11.30
2019-04-14T13:32:48.391Z,11.20
2019-04-14T13:35:17.975Z,10.90
2019-04-14T13:37:47.402Z,10.80
2019-04-14T13:40:17.117Z,10.40
2019-04-14T13:42:46.703Z,10.40
2019-04-14T13:45:16.251Z,10.80
2019-04-14T13:47:45.759Z,11.10
2019-04-14T13:50:15.478Z,11.10
2019-04-14T13:52:47.191Z,10.80
2019-04-14T13:55:16.444Z,10.80
2019-04-14T13:57:46.086Z,10.60
2019-04-14T14:00:16.441Z,10.20
2019-04-14T14:02:46.023Z,10.10
2019-04-14T14:05:17.735Z,10.30
2019-04-14T14:07:47.334Z,10.40
2019-04-14T14:10:17.216Z,10.80
2019-04-14T14:12:48.442Z,11.20
2019-04-14T14:15:35.929Z,11.50
2019-04-14T14:18:22.668Z,11.30
2019-04-14T14:21:06.087Z,10.90
2019-04-14T14:23:39.828Z,10.70
2019-04-14T14:26:13.847Z,10.70
2019-04-14T14:28:43.401Z,10.80
2019-04-14T14:31:12.883Z,10.40
2019-04-14T14:33:45.151Z,10.30
2019-04-14T14:36:13.526Z,10.50
2019-04-14T14:38:43.005Z,11.00
2019-04-14T14:41:14.156Z,11.40
2019-04-14T14:43:43.812Z,11.50
2019-04-14T14:46:21.346Z,11.20
2019-04-14T14:48:55.023Z,11.10
2019-04-14T14:51:31.676Z,10.40
2019-04-14T14:54:01.329Z,10.00
2019-04-14T14:56:30.888Z,9.70
2019-04-14T14:59:02.471Z,10.00
2019-04-14T15:01:31.890Z,10.10
2019-04-14T15:04:01.463Z,10.50
2019-04-14T15:06:31.160Z,10.90
2019-04-14T15:09:00.575Z,11.20
2019-04-14T15:11:31.639Z,10.80
2019-04-14T15:14:01.250Z,10.20
2019-04-14T15:16:30.819Z,10.20
2019-04-14T15:19:00.292Z,10.20
2019-04-14T15:21:29.860Z,10.10
2019-04-14T15:23:59.474Z,10.10
2019-04-14T15:26:30.547Z,10.00
2019-04-14T15:29:00.250Z,9.60
2019-04-14T15:31:29.962Z,9.40
2019-04-14T15:33:59.493Z,9.10
2019-04-14T15:36:29.024Z,9.10
2019-04-14T15:38:58.563Z,9.20
2019-04-14T15:41:27.973Z,9.00
2019-04-14T15:43:57.416Z,9.10
2019-04-14T15:46:27.069Z,9.20
2019-04-14T15:48:56.678Z,9.30
2019-04-14T15:51:26.105Z,9.10
2019-04-14T15:53:55.599Z,9.10
2019-04-14T15:56:29.363Z,8.90
2019-04-14T15:59:03.984Z,8.70
2019-04-14T16:01:43.963Z,8.70
2019-04-14T16:04:18.083Z,8.60
2019-04-14T16:06:49.239Z,8.50
2019-04-14T16:09:23.111Z,8.50
2019-04-14T16:12:05.827Z,8.30
2019-04-14T16:14:45.855Z,8.30
2019-04-14T16:17:32.227Z,8.30
2019-04-14T16:20:11.898Z,8.10
2019-04-14T16:22:41.446Z,8.20
2019-04-14T16:25:11.135Z,8.20
2019-04-14T16:27:48.255Z,8.00
2019-04-14T16:30:34.806Z,8.10
2019-04-14T16:33:06.065Z,8.10
2019-04-14T16:35:37.223Z,8.10
2019-04-14T16:38:06.992Z,7.90
2019-04-14T16:40:37.918Z,7.70
2019-04-14T16:43:07.436Z,7.80
2019-04-14T16:45:37.063Z,7.70
2019-04-14T16:48:06.672Z,7.60
2019-04-14T16:50:36.153Z,7.70
2019-04-14T16:53:07.244Z,7.80
2019-04-14T16:55:38.544Z,7.60
2019-04-14T16:58:21.910Z,7.50
2019-04-14T17:00:52.972Z,7.40
2019-04-14T17:03:22.430Z,7.30
2019-04-14T17:05:51.854Z,7.20
2019-04-14T17:08:21.328Z,7.30
2019-04-14T17:10:50.729Z,7.20
2019-04-14T17:13:20.208Z,7.00
2019-04-14T17:15:53.681Z,7.00
2019-04-14T17:18:27.465Z,7.00
2019-04-14T17:20:58.506Z,7.10
2019-04-14T17:23:35.778Z,7.00
2019-04-14T17:26:07.024Z,6.90
2019-04-14T17:28:43.982Z,6.90
2019-04-14T17:31:23.943Z,6.90
2019-04-14T17:33:57.879Z,6.80
2019-04-14T17:36:29.007Z,6.50
2019-04-14T17:39:02.814Z,6.50
2019-04-14T17:41:36.781Z,6.50
2019-04-14T17:44:08.057Z,6.50
2019-04-14T17:46:55.219Z,6.50
2019-04-14T17:49:28.686Z,6.60
2019-04-14T17:52:15.662Z,6.50
2019-04-14T17:54:46.738Z,6.40
2019-04-14T17:57:33.761Z,6.40
2019-04-14T18:00:22.551Z,6.20
2019-04-14T18:03:08.661Z,6.10
2019-04-14T18:05:42.596Z,6.10
2019-04-14T18:08:19.386Z,6.00
2019-04-14T18:10:59.537Z,6.00
2019-04-14T18:13:42.816Z,6.00
2019-04-14T18:16:29.829Z,5.90
2019-04-14T18:19:09.634Z,5.90
2019-04-14T18:21:39.101Z,5.90
2019-04-14T18:24:08.578Z,5.90
2019-04-14T18:26:37.971Z,5.90
2019-04-14T18:29:27.142Z,5.80
2019-04-14T18:32:14.534Z,5.80
2019-04-14T18:34:48.072Z,5.80
2019-04-14T18:37:34.232Z,5.80
2019-04-14T18:40:17.841Z,5.90
2019-04-14T18:43:08.557Z,5.90
2019-04-14T18:45:42.971Z,5.70
2019-04-14T18:48:22.834Z,5.80
2019-04-14T18:51:04.824Z,5.80
2019-04-14T18:53:51.108Z,5.60
2019-04-14T18:56:38.719Z,5.70
2019-04-14T18:59:22.067Z,5.70
2019-04-14T19:01:53.293Z,5.60
2019-04-14T19:04:22.682Z,5.70
2019-04-14T19:06:52.167Z,5.70
2019-04-14T19:09:21.866Z,5.80
2019-04-14T19:11:52.961Z,5.80
2019-04-14T19:14:24.095Z,5.70
2019-04-14T19:17:00.747Z,5.60
2019-04-14T19:19:32.044Z,5.50
2019-04-14T19:22:01.522Z,5.50
2019-04-14T19:24:30.968Z,5.40
2019-04-14T19:27:00.367Z,5.40
2019-04-14T19:29:29.860Z,5.40
2019-04-14T19:31:59.242Z,5.30
2019-04-14T19:34:28.676Z,5.30
2019-04-14T19:36:58.118Z,5.30
2019-04-14T19:39:27.535Z,5.30
2019-04-14T19:41:57.016Z,5.30
2019-04-14T19:44:26.533Z,5.30
2019-04-14T19:46:56.014Z,5.30
2019-04-14T19:49:25.470Z,5.30
2019-04-14T19:51:54.871Z,5.20
2019-04-14T19:54:24.359Z,5.20
2019-04-14T19:56:53.760Z,5.20
2019-04-14T19:59:23.174Z,5.20
2019-04-14T20:01:52.718Z,5.30
2019-04-14T20:04:22.135Z,5.30
2019-04-14T20:06:51.606Z,5.30
2019-04-14T20:09:21.093Z,5.30
2019-04-14T20:11:50.571Z,5.30
2019-04-14T20:14:19.972Z,5.30
2019-04-14T20:16:53.718Z,5.30
2019-04-14T20:19:36.856Z,5.30
2019-04-14T20:22:11.034Z,5.30
2019-04-14T20:24:42.047Z,5.30
2019-04-14T20:27:18.690Z,5.30
2019-04-14T20:30:07.737Z,5.40
2019-04-14T20:32:38.751Z,5.30
2019-04-14T20:35:09.689Z,5.20
2019-04-14T20:37:39.098Z,5.20
2019-04-14T20:40:09.285Z,5.20
2019-04-14T20:42:38.836Z,5.20
2019-04-14T20:45:10.572Z,5.30
2019-04-14T20:47:39.952Z,5.40
2019-04-14T20:50:09.685Z,5.30
2019-04-14T20:52:39.076Z,5.30
2019-04-14T20:55:09.143Z,5.30
2019-04-14T20:57:38.568Z,5.20
2019-04-14T21:00:20.631Z,5.30
2019-04-14T21:03:06.819Z,5.30
2019-04-14T21:05:43.449Z,5.30
2019-04-14T21:08:16.944Z,5.20
2019-04-14T21:10:47.964Z,5.30
2019-04-14T21:13:19.083Z,5.30
2019-04-14T21:15:53.059Z,5.20
2019-04-14T21:18:24.153Z,5.10
2019-04-14T21:20:55.204Z,5.20
2019-04-14T21:23:43.968Z,5.30
2019-04-14T21:26:17.705Z,5.20
2019-04-14T21:28:57.507Z,5.20
2019-04-14T21:31:28.561Z,5.10
2019-04-14T21:34:08.708Z,5.10
2019-04-14T21:36:45.526Z,5.10
2019-04-14T21:39:32.787Z,5.20
2019-04-14T21:42:02.178Z,5.20
2019-04-14T21:44:31.607Z,5.20
2019-04-14T21:47:01.007Z,5.20
2019-04-14T21:49:30.387Z,5.20
2019-04-14T21:52:07.217Z,5.20
2019-04-14T21:54:36.660Z,5.20
2019-04-14T21:57:13.752Z,5.20
2019-04-14T21:59:47.523Z,5.20
2019-04-14T22:02:34.651Z,5.20
2019-04-14T22:05:22.909Z,5.20
2019-04-14T22:08:09.740Z,5.10
2019-04-14T22:10:40.839Z,5.10
2019-04-14T22:13:10.286Z,5.00
2019-04-14T22:15:39.898Z,4.90
2019-04-14T22:18:09.283Z,4.90
2019-04-14T22:20:38.694Z,4.90
2019-04-14T22:23:09.857Z,5.00
2019-04-14T22:25:39.247Z,5.00
2019-04-14T22:28:08.777Z,5.00
2019-04-14T22:30:38.179Z,5.00
2019-04-14T22:33:07.658Z,5.00
2019-04-14T22:35:37.037Z,5.00
2019-04-14T22:38:06.582Z,5.10
2019-04-14T22:40:35.975Z,5.20
2019-04-14T22:43:06.056Z,5.10
2019-04-14T22:45:35.607Z,5.10
2019-04-14T22:48:05.065Z,5.10
2019-04-14T22:50:34.522Z,5.00
2019-04-14T22:53:03.930Z,5.00
2019-04-14T22:55:33.752Z,5.00
2019-04-14T22:58:03.219Z,5.00
2019-04-14T23:00:34.334Z,4.90
2019-04-14T23:03:05.375Z,4.90
2019-04-14T23:05:39.527Z,4.80
2019-04-14T23:08:10.646Z,4.80
2019-04-14T23:10:47.414Z,4.80
2019-04-14T23:13:18.459Z,4.80
2019-04-14T23:15:51.999Z,4.80
2019-04-14T23:18:29.449Z,4.80
2019-04-14T23:21:03.459Z,4.80
2019-04-14T23:23:49.601Z,4.80
2019-04-14T23:26:19.719Z,4.80
2019-04-14T23:28:49.110Z,4.80
2019-04-14T23:31:18.580Z,4.80
2019-04-14T23:33:47.984Z,4.80
2019-04-14T23:36:17.446Z,4.80
2019-04-14T23:38:46.829Z,4.80
2019-04-14T23:41:16.190Z,4.80
2019-04-14T23:43:45.593Z,4.80
2019-04-14T23:46:15.061Z,4.80
2019-04-14T23:48:44.655Z,4.80
2019-04-14T23:51:14.186Z,4.90
2019-04-14T23:53:43.559Z,4.90
2019-04-14T23:56:12.948Z,4.90
2019-04-14T23:58:42.422Z,4.90
